createdAt,value
2018-11-07T00:00:06.836Z,76.70
2018-11-07T00:02:35.769Z,80.87
2018-11-07T00:05:05.692Z,77.72
2018-11-07T00:07:34.817Z,76.17
2018-11-07T00:10:04.108Z,74.53
2018-11-07T00:12:33.079Z,76.62
2018-11-07T00:15:02.031Z,70.42
2018-11-07T00:17:31.047Z,79.47
2018-11-07T00:20:00.557Z,76.15
2018-11-07T00:22:29.486Z,74.03
2018-11-07T00:24:58.423Z,81.05
2018-11-07T00:27:27.413Z,71.92
2018-11-07T00:29:56.435Z,78.42
2018-11-07T00:32:25.579Z,80.87
2018-11-07T00:34:54.556Z,77.85
2018-11-07T00:37:23.745Z,83.80
2018-11-07T00:39:52.725Z,70.57
2018-11-07T00:42:21.716Z,84.55
2018-11-07T00:44:51.171Z,78.97
2018-11-07T00:47:20.113Z,88.85
2018-11-07T00:49:49.198Z,93.62
2018-11-07T00:52:18.383Z,86.45
2018-11-07T00:54:47.479Z,91.25
2018-11-07T00:57:16.418Z,86.40
2018-11-07T00:59:45.369Z,85.35
2018-11-07T01:02:14.327Z,75.12
2018-11-07T01:04:43.263Z,81.70
2018-11-07T01:07:12.268Z,69.03
2018-11-07T01:09:41.358Z,75.20
2018-11-07T01:12:10.523Z,71.20
2018-11-07T01:14:39.514Z,80.97
2018-11-07T01:17:08.532Z,82.05
2018-11-07T01:19:37.505Z,80.85
2018-11-07T01:22:07.247Z,75.05
2018-11-07T01:24:36.182Z,76.20
2018-11-07T01:27:05.180Z,80.65
2018-11-07T01:29:34.149Z,77.53
2018-11-07T01:32:03.100Z,76.75
2018-11-07T01:34:32.065Z,80.70
2018-11-07T01:37:01.063Z,78.62
2018-11-07T01:39:30.154Z,77.87
2018-11-07T01:41:59.115Z,74.40
2018-11-07T01:44:28.367Z,74.00
2018-11-07T01:46:57.290Z,73.87
2018-11-07T01:49:26.229Z,72.62
2018-11-07T01:51:55.222Z,72.17
2018-11-07T01:54:24.213Z,69.37
2018-11-07T01:56:53.134Z,74.72
2018-11-07T01:59:22.062Z,78.00
2018-11-07T02:01:51.016Z,70.28
2018-11-07T02:04:20.286Z,77.72
2018-11-07T02:06:49.226Z,70.85
2018-11-07T02:09:18.139Z,80.60
2018-11-07T02:11:46.994Z,76.45
2018-11-07T02:14:16.004Z,77.78
2018-11-07T02:16:45.256Z,76.82
2018-11-07T02:19:14.309Z,83.95
2018-11-07T02:21:43.492Z,76.17
2018-11-07T02:24:12.405Z,74.35
2018-11-07T02:26:41.693Z,78.95
2018-11-07T02:29:14.486Z,75.78
2018-11-07T02:31:46.169Z,73.72
2018-11-07T02:34:16.233Z,72.95
2018-11-07T02:36:45.376Z,70.22
2018-11-07T02:39:15.567Z,68.60
2018-11-07T02:41:44.582Z,75.50
2018-11-07T02:44:14.158Z,71.42
2018-11-07T02:46:43.547Z,75.30
2018-11-07T02:49:12.495Z,68.80
2018-11-07T02:51:41.447Z,65.28
2018-11-07T02:54:10.356Z,69.72
2018-11-07T02:56:39.276Z,63.10
2018-11-07T02:59:08.203Z,55.95
2018-11-07T03:01:37.291Z,60.55
2018-11-07T03:04:06.381Z,57.62
2018-11-07T03:06:35.317Z,61.35
2018-11-07T03:09:06.533Z,65.35
2018-11-07T03:11:35.826Z,65.05
2018-11-07T03:14:05.205Z,67.15
2018-11-07T03:16:34.207Z,62.30
2018-11-07T03:19:03.126Z,72.65
2018-11-07T03:21:32.189Z,74.82
2018-11-07T03:24:01.121Z,71.55
2018-11-07T03:26:30.089Z,60.15
2018-11-07T03:28:59.032Z,71.15
2018-11-07T03:31:28.265Z,63.70
2018-11-07T03:33:57.385Z,65.60
2018-11-07T03:36:26.340Z,73.28
2018-11-07T03:38:55.284Z,60.45
2018-11-07T03:41:24.262Z,63.10
2018-11-07T03:43:53.229Z,68.25
2018-11-07T03:46:22.576Z,72.82
2018-11-07T03:48:51.500Z,71.95
2018-11-07T03:51:20.453Z,73.95
2018-11-07T03:53:49.554Z,69.97
2018-11-07T03:56:18.484Z,70.50
2018-11-07T03:58:47.600Z,66.57
2018-11-07T04:01:17.175Z,62.10
2018-11-07T04:03:46.186Z,65.00
2018-11-07T04:06:15.186Z,81.78
2018-11-07T04:08:44.128Z,83.22
2018-11-07T04:11:13.058Z,67.90
2018-11-07T04:13:42.089Z,70.47
2018-11-07T04:16:11.235Z,76.65
2018-11-07T04:18:40.372Z,66.70
2018-11-07T04:21:09.320Z,69.12
2018-11-07T04:23:38.331Z,69.10
2018-11-07T04:26:07.443Z,71.97
2018-11-07T04:28:36.437Z,71.72
2018-11-07T04:31:05.872Z,73.22
2018-11-07T04:33:34.803Z,76.50
2018-11-07T04:36:04.095Z,80.20
2018-11-07T04:38:33.109Z,76.42
2018-11-07T04:41:02.199Z,71.15
2018-11-07T04:43:31.211Z,65.12
2018-11-07T04:46:00.160Z,75.45
2018-11-07T04:48:29.128Z,74.45
2018-11-07T04:50:58.035Z,81.70
2018-11-07T04:53:26.977Z,69.62
2018-11-07T04:55:56.061Z,82.15
2018-11-07T04:58:25.019Z,83.58
2018-11-07T05:00:53.940Z,81.08
2018-11-07T05:03:22.881Z,84.30
2018-11-07T05:05:52.182Z,77.58
2018-11-07T05:08:21.276Z,80.00
2018-11-07T05:10:50.417Z,80.12
2018-11-07T05:13:19.367Z,75.90
2018-11-07T05:15:48.325Z,82.02
2018-11-07T05:18:17.453Z,82.72
2018-11-07T05:20:46.385Z,80.17
2018-11-07T05:23:15.469Z,83.50
2018-11-07T05:25:44.423Z,74.05
2018-11-07T05:28:13.367Z,73.22
2018-11-07T05:30:42.353Z,81.02
2018-11-07T05:33:11.304Z,80.17
2018-11-07T05:35:40.260Z,79.90
2018-11-07T05:38:09.503Z,90.22
2018-11-07T05:40:38.519Z,86.53
2018-11-07T05:43:07.607Z,80.45
2018-11-07T05:45:36.568Z,87.25
2018-11-07T05:48:05.620Z,114.88
2018-11-07T05:50:34.585Z,98.45
2018-11-07T05:53:03.572Z,83.65
2018-11-07T05:55:32.535Z,88.90
2018-11-07T05:58:01.608Z,90.35
2018-11-07T06:00:30.580Z,84.92
2018-11-07T06:02:59.584Z,84.35
2018-11-07T06:05:28.634Z,93.03
2018-11-07T06:07:57.627Z,92.10
2018-11-07T06:10:26.667Z,87.55
2018-11-07T06:12:55.618Z,94.85
2018-11-07T06:15:24.665Z,90.10
2018-11-07T06:17:53.742Z,82.45
2018-11-07T06:20:22.674Z,81.22
2018-11-07T06:22:51.808Z,82.62
2018-11-07T06:25:20.854Z,86.25
2018-11-07T06:27:49.920Z,84.17
2018-11-07T06:30:18.988Z,87.82
2018-11-07T06:32:47.927Z,95.42
2018-11-07T06:35:16.956Z,85.00
2018-11-07T06:37:45.948Z,101.02
2018-11-07T06:40:14.978Z,98.72
2018-11-07T06:42:45.779Z,107.97
2018-11-07T06:45:14.729Z,87.53
2018-11-07T06:47:43.695Z,88.27
2018-11-07T06:50:14.437Z,82.27
2018-11-07T06:52:43.897Z,83.42
2018-11-07T06:55:13.078Z,76.62
2018-11-07T06:57:42.553Z,88.07
2018-11-07T07:00:14.173Z,74.47
2018-11-07T07:02:44.370Z,83.42
2018-11-07T07:05:13.791Z,90.17
2018-11-07T07:07:42.807Z,79.17
2018-11-07T07:10:14.217Z,86.85
2018-11-07T07:12:43.267Z,81.22
2018-11-07T07:15:14.075Z,81.08
2018-11-07T07:17:43.157Z,72.47
2018-11-07T07:20:15.349Z,78.65
2018-11-07T07:22:45.407Z,80.70
2018-11-07T07:25:14.583Z,81.32
2018-11-07T07:27:44.234Z,88.78
2018-11-07T07:30:15.205Z,76.80
2018-11-07T07:32:45.090Z,80.28
2018-11-07T07:35:14.985Z,80.32
2018-11-07T07:37:44.159Z,73.70
2018-11-07T07:40:14.334Z,77.53
2018-11-07T07:42:44.080Z,75.60
2018-11-07T07:45:15.039Z,71.47
2018-11-07T07:47:44.710Z,70.83
2018-11-07T07:50:14.912Z,73.72
2018-11-07T07:52:44.312Z,72.58
2018-11-07T07:55:13.818Z,64.82
2018-11-07T07:57:43.314Z,61.28
2018-11-07T08:00:14.385Z,67.58
2018-11-07T08:02:45.184Z,63.13
2018-11-07T08:05:14.372Z,68.33
2018-11-07T08:07:44.161Z,63.45
2018-11-07T08:10:14.459Z,60.17
2018-11-07T08:12:44.046Z,60.17
2018-11-07T08:15:13.937Z,60.10
2018-11-07T08:17:43.696Z,63.45
2018-11-07T08:20:14.145Z,66.65
2018-11-07T08:22:44.407Z,61.75
2018-11-07T08:25:13.383Z,57.88
2018-11-07T08:27:42.341Z,60.90
2018-11-07T08:30:14.275Z,60.03
2018-11-07T08:32:43.608Z,54.95
2018-11-07T08:35:13.591Z,60.75
2018-11-07T08:37:43.594Z,53.20
2018-11-07T08:40:17.719Z,61.18
2018-11-07T08:42:47.709Z,57.50
2018-11-07T08:45:16.837Z,53.52
2018-11-07T08:47:46.653Z,56.92
2018-11-07T08:50:17.067Z,55.78
2018-11-07T08:52:47.394Z,50.50
2018-11-07T08:55:17.814Z,59.18
2018-11-07T08:57:47.265Z,59.20
2018-11-07T09:00:17.905Z,51.65
2018-11-07T09:02:47.509Z,51.28
2018-11-07T09:05:17.560Z,53.48
2018-11-07T09:07:47.081Z,56.05
2018-11-07T09:10:17.342Z,53.48
2018-11-07T09:12:46.624Z,56.25
2018-11-07T09:15:17.350Z,47.60
2018-11-07T09:17:46.315Z,60.73
2018-11-07T09:20:17.270Z,47.65
2018-11-07T09:22:46.369Z,51.40
2018-11-07T09:25:16.176Z,49.10
2018-11-07T09:27:46.065Z,48.15
2018-11-07T09:30:16.472Z,47.53
2018-11-07T09:32:45.456Z,49.67
2018-11-07T09:35:15.128Z,50.85
2018-11-07T09:37:44.362Z,45.60
2018-11-07T09:40:17.103Z,47.38
2018-11-07T09:42:46.909Z,47.80
2018-11-07T09:45:17.106Z,44.83
2018-11-07T09:47:47.166Z,46.73
2018-11-07T09:50:17.454Z,44.48
2018-11-07T09:52:46.610Z,44.73
2018-11-07T09:55:18.214Z,42.50
2018-11-07T09:57:47.392Z,45.70
2018-11-07T10:00:19.270Z,46.18
2018-11-07T10:02:48.479Z,46.15
2018-11-07T10:05:18.709Z,43.58
2018-11-07T10:07:47.909Z,45.65
2018-11-07T10:10:18.315Z,43.73
2018-11-07T10:12:47.722Z,45.85
2018-11-07T10:15:17.540Z,44.27
2018-11-07T10:17:46.502Z,47.70
2018-11-07T10:20:17.162Z,43.78
2018-11-07T10:22:46.978Z,42.48
2018-11-07T10:25:16.266Z,45.30
2018-11-07T10:27:45.529Z,40.83
2018-11-07T10:30:16.056Z,43.87
2018-11-07T10:32:46.332Z,41.25
2018-11-07T10:35:15.379Z,41.20
2018-11-07T10:37:44.818Z,39.40
2018-11-07T10:40:20.763Z,37.03
2018-11-07T10:42:49.780Z,40.40
2018-11-07T10:45:18.786Z,39.48
2018-11-07T10:47:48.625Z,44.77
2018-11-07T10:50:18.911Z,38.67
2018-11-07T10:52:48.595Z,41.15
2018-11-07T10:55:18.011Z,37.55
2018-11-07T10:57:47.137Z,38.78
2018-11-07T11:00:21.693Z,32.75
2018-11-07T11:02:56.860Z,38.70
2018-11-07T11:05:26.280Z,36.42
2018-11-07T11:07:55.246Z,33.88
2018-11-07T11:10:24.721Z,34.33
2018-11-07T11:12:53.723Z,31.10
2018-11-07T11:15:22.828Z,30.23
2018-11-07T11:17:51.913Z,34.40
2018-11-07T11:20:20.866Z,32.15
2018-11-07T11:22:49.831Z,32.05
2018-11-07T11:25:18.905Z,36.48
2018-11-07T11:27:48.025Z,31.82
2018-11-07T11:30:16.991Z,32.53
2018-11-07T11:32:46.178Z,32.88
2018-11-07T11:35:15.373Z,28.15
2018-11-07T11:37:44.355Z,27.60
2018-11-07T11:40:14.964Z,29.20
2018-11-07T11:42:44.721Z,28.47
2018-11-07T11:45:15.263Z,29.20
2018-11-07T11:47:44.956Z,31.75
2018-11-07T11:50:16.266Z,26.82
2018-11-07T11:52:46.118Z,28.27
2018-11-07T11:55:15.114Z,31.00
2018-11-07T11:57:44.735Z,33.55
2018-11-07T12:00:15.840Z,29.10
2018-11-07T12:02:45.492Z,30.88
2018-11-07T12:05:15.370Z,29.05
2018-11-07T12:07:44.536Z,25.75
2018-11-07T12:10:18.999Z,28.60
2018-11-07T12:12:49.646Z,26.50
2018-11-07T12:15:19.841Z,23.45
2018-11-07T12:17:49.320Z,26.42
2018-11-07T12:20:18.450Z,26.42
2018-11-07T12:22:47.580Z,26.50
2018-11-07T12:25:17.290Z,25.00
2018-11-07T12:27:46.585Z,25.12
2018-11-07T12:30:17.742Z,30.85
2018-11-07T12:32:47.632Z,26.25
2018-11-07T12:35:17.170Z,25.70
2018-11-07T12:37:46.690Z,26.00
2018-11-07T12:40:16.084Z,25.27
2018-11-07T12:42:45.105Z,24.98
2018-11-07T12:45:15.487Z,24.60
2018-11-07T12:47:44.419Z,25.00
2018-11-07T12:50:17.751Z,24.37
2018-11-07T12:52:47.296Z,28.65
2018-11-07T12:55:16.854Z,28.32
2018-11-07T12:57:45.801Z,55.67
2018-11-07T13:00:17.883Z,30.85
2018-11-07T13:02:47.193Z,26.55
2018-11-07T13:05:17.449Z,22.73
2018-11-07T13:07:47.491Z,25.27
2018-11-07T13:10:17.700Z,29.15
2018-11-07T13:12:47.341Z,23.52
2018-11-07T13:15:17.041Z,23.92
2018-11-07T13:17:47.407Z,22.45
2018-11-07T13:20:18.513Z,23.92
2018-11-07T13:22:49.016Z,18.80
2018-11-07T13:25:18.279Z,21.75
2018-11-07T13:27:47.339Z,19.55
2018-11-07T13:30:17.624Z,19.67
2018-11-07T13:32:46.604Z,19.23
2018-11-07T13:35:16.480Z,23.25
2018-11-07T13:37:46.692Z,20.60
2018-11-07T13:40:18.349Z,21.00
2018-11-07T13:42:47.420Z,21.75
2018-11-07T13:45:18.559Z,26.33
2018-11-07T13:47:48.904Z,22.15
2018-11-07T13:50:18.366Z,21.45
2018-11-07T13:52:47.539Z,28.32
2018-11-07T13:55:16.643Z,24.80
2018-11-07T13:57:45.900Z,26.52
2018-11-07T14:00:19.918Z,30.68
2018-11-07T14:02:49.296Z,28.10
2018-11-07T14:05:18.280Z,31.80
2018-11-07T14:07:47.547Z,27.85
2018-11-07T14:10:20.474Z,29.18
2018-11-07T14:12:50.450Z,29.18
2018-11-07T14:15:19.444Z,34.43
2018-11-07T14:17:48.743Z,28.15
2018-11-07T14:20:17.988Z,30.82
2018-11-07T14:22:47.124Z,32.33
2018-11-07T14:25:16.158Z,30.48
2018-11-07T14:27:45.365Z,30.32
2018-11-07T14:30:16.019Z,36.42
2018-11-07T14:32:51.367Z,31.15
2018-11-07T14:35:20.915Z,30.80
2018-11-07T14:37:50.333Z,31.55
2018-11-07T14:40:19.446Z,34.65
2018-11-07T14:42:48.445Z,29.77
2018-11-07T14:45:17.905Z,43.95
2018-11-07T14:47:46.966Z,30.10
2018-11-07T14:50:16.227Z,35.13
2018-11-07T14:52:45.533Z,32.93
2018-11-07T14:55:14.533Z,33.80
2018-11-07T14:57:43.629Z,33.58
2018-11-07T15:00:14.485Z,32.20
2018-11-07T15:02:44.135Z,36.53
2018-11-07T15:05:14.797Z,33.48
2018-11-07T15:07:44.509Z,31.73
2018-11-07T15:10:14.704Z,30.75
2018-11-07T15:12:43.738Z,30.30
2018-11-07T15:15:17.578Z,30.55
2018-11-07T15:17:47.348Z,33.25
2018-11-07T15:20:17.490Z,34.20
2018-11-07T15:22:46.492Z,37.08
2018-11-07T15:25:16.633Z,37.30
2018-11-07T15:27:46.543Z,32.63
2018-11-07T15:30:16.836Z,38.53
2018-11-07T15:32:46.717Z,35.80
2018-11-07T15:35:15.831Z,38.65
2018-11-07T15:37:44.937Z,36.80
2018-11-07T15:40:15.352Z,39.55
2018-11-07T15:42:44.958Z,41.85
2018-11-07T15:45:15.414Z,43.45
2018-11-07T15:47:44.478Z,38.02
2018-11-07T15:50:18.912Z,37.13
2018-11-07T15:52:48.519Z,42.85
2018-11-07T15:55:17.766Z,38.70
2018-11-07T15:57:46.718Z,33.67
2018-11-07T16:00:16.930Z,39.23
2018-11-07T16:02:45.966Z,37.65
2018-11-07T16:05:15.934Z,36.83
2018-11-07T16:07:44.905Z,38.30
2018-11-07T16:10:15.056Z,42.43
2018-11-07T16:12:44.463Z,41.42
2018-11-07T16:15:15.318Z,44.83
2018-11-07T16:17:45.074Z,49.77
2018-11-07T16:20:15.545Z,42.95
2018-11-07T16:22:45.388Z,42.58
2018-11-07T16:25:14.502Z,44.33
2018-11-07T16:27:44.017Z,34.58
2018-11-07T16:30:14.571Z,37.38
2018-11-07T16:32:43.909Z,43.90
2018-11-07T16:35:13.594Z,43.05
2018-11-07T16:37:43.109Z,45.60
2018-11-07T16:40:15.677Z,55.33
2018-11-07T16:42:44.991Z,44.77
2018-11-07T16:45:15.279Z,49.27
2018-11-07T16:47:44.354Z,43.20
2018-11-07T16:50:15.106Z,47.78
2018-11-07T16:52:44.215Z,49.40
2018-11-07T16:55:13.918Z,48.48
2018-11-07T16:57:42.898Z,47.40
2018-11-07T17:00:18.161Z,44.73
2018-11-07T17:02:47.984Z,44.25
2018-11-07T17:05:17.465Z,45.70
2018-11-07T17:07:47.803Z,49.27
2018-11-07T17:10:17.198Z,44.60
2018-11-07T17:12:46.179Z,52.50
2018-11-07T17:15:15.243Z,47.05
2018-11-07T17:17:44.207Z,46.92
2018-11-07T17:20:14.321Z,46.50
2018-11-07T17:22:43.704Z,46.48
2018-11-07T17:25:15.167Z,47.70
2018-11-07T17:27:44.359Z,41.48
2018-11-07T17:30:14.430Z,50.45
2018-11-07T17:32:43.567Z,56.00
2018-11-07T17:35:13.847Z,48.23
2018-11-07T17:37:43.390Z,49.60
2018-11-07T17:40:15.270Z,52.13
2018-11-07T17:42:44.573Z,59.38
2018-11-07T17:45:15.697Z,47.65
2018-11-07T17:47:45.195Z,49.70
2018-11-07T17:50:15.621Z,52.30
2018-11-07T17:52:44.726Z,56.75
2018-11-07T17:55:15.183Z,46.77
2018-11-07T17:57:44.148Z,48.65
2018-11-07T18:00:18.767Z,48.05
2018-11-07T18:02:48.097Z,42.93
2018-11-07T18:05:17.274Z,44.98
2018-11-07T18:07:46.392Z,45.95
2018-11-07T18:10:16.956Z,46.20
2018-11-07T18:12:46.291Z,43.23
2018-11-07T18:15:15.382Z,50.98
2018-11-07T18:17:44.407Z,44.65
2018-11-07T18:20:14.921Z,46.85
2018-11-07T18:22:43.997Z,50.75
2018-11-07T18:25:13.936Z,50.83
2018-11-07T18:27:43.362Z,48.55
2018-11-07T18:30:13.742Z,46.88
2018-11-07T18:32:43.268Z,47.80
2018-11-07T18:35:13.926Z,49.65
2018-11-07T18:37:43.196Z,50.58
2018-11-07T18:40:13.532Z,47.88
2018-11-07T18:42:42.545Z,50.45
2018-11-07T18:45:12.344Z,49.75
2018-11-07T18:47:42.878Z,50.43
2018-11-07T18:50:14.733Z,52.23
2018-11-07T18:52:44.119Z,48.85
2018-11-07T18:55:14.222Z,51.30
2018-11-07T18:57:44.144Z,48.70
2018-11-07T19:00:15.847Z,48.75
2018-11-07T19:02:45.806Z,50.65
2018-11-07T19:05:15.307Z,45.35
2018-11-07T19:07:44.384Z,51.33
2018-11-07T19:10:18.716Z,57.35
2018-11-07T19:12:48.170Z,46.70
2018-11-07T19:15:17.652Z,56.15
2018-11-07T19:17:47.656Z,53.60
2018-11-07T19:20:17.235Z,53.73
2018-11-07T19:22:46.556Z,52.23
2018-11-07T19:25:17.024Z,57.17
2018-11-07T19:27:46.119Z,52.33
2018-11-07T19:30:16.747Z,50.35
2018-11-07T19:32:46.812Z,62.67
2018-11-07T19:35:17.263Z,53.65
2018-11-07T19:37:47.095Z,53.10
2018-11-07T19:40:18.767Z,54.53
2018-11-07T19:42:48.065Z,56.20
2018-11-07T19:45:18.370Z,55.95
2018-11-07T19:47:47.590Z,56.30
2018-11-07T19:50:17.727Z,52.30
2018-11-07T19:52:47.793Z,52.73
2018-11-07T19:55:20.646Z,52.93
2018-11-07T19:57:57.551Z,56.18
2018-11-07T20:00:27.000Z,53.65
2018-11-07T20:02:55.969Z,60.12
2018-11-07T20:05:25.316Z,51.88
2018-11-07T20:07:54.273Z,52.40
2018-11-07T20:10:23.404Z,59.20
2018-11-07T20:12:52.629Z,53.83
2018-11-07T20:15:21.947Z,59.50
2018-11-07T20:17:51.303Z,60.40
2018-11-07T20:20:20.296Z,58.40
2018-11-07T20:22:49.293Z,57.23
2018-11-07T20:25:18.480Z,58.63
2018-11-07T20:27:47.624Z,58.80
2018-11-07T20:30:18.141Z,52.35
2018-11-07T20:32:47.118Z,55.28
2018-11-07T20:35:17.361Z,56.45
2018-11-07T20:37:46.509Z,64.05
2018-11-07T20:40:16.910Z,53.98
2018-11-07T20:42:45.950Z,65.45
2018-11-07T20:45:15.601Z,53.15
2018-11-07T20:47:45.070Z,55.88
2018-11-07T20:50:16.244Z,55.00
2018-11-07T20:52:45.782Z,54.50
2018-11-07T20:55:15.258Z,54.48
2018-11-07T20:57:44.234Z,55.38
2018-11-07T21:00:18.364Z,56.20
2018-11-07T21:02:47.763Z,48.10
2018-11-07T21:05:17.108Z,51.65
2018-11-07T21:07:46.040Z,51.33
2018-11-07T21:10:18.262Z,52.48
2018-11-07T21:12:47.600Z,51.28
2018-11-07T21:15:17.519Z,52.53
2018-11-07T21:17:46.946Z,50.12
2018-11-07T21:20:15.935Z,51.53
2018-11-07T21:22:45.113Z,51.98
2018-11-07T21:25:14.274Z,55.58
2018-11-07T21:27:43.343Z,48.48
2018-11-07T21:30:14.071Z,50.33
2018-11-07T21:32:43.668Z,52.93
2018-11-07T21:35:12.870Z,49.05
2018-11-07T21:37:42.032Z,53.87
2018-11-07T21:40:13.101Z,55.10
2018-11-07T21:42:42.357Z,60.05
2018-11-07T21:45:12.625Z,50.33
2018-11-07T21:47:41.952Z,52.90
2018-11-07T21:50:12.550Z,59.65
2018-11-07T21:52:41.634Z,63.50
2018-11-07T21:55:10.640Z,55.08
2018-11-07T21:57:39.917Z,58.68
2018-11-07T22:00:11.213Z,56.90
2018-11-07T22:02:40.413Z,58.85
2018-11-07T22:05:10.485Z,51.77
2018-11-07T22:07:39.791Z,58.42
2018-11-07T22:10:09.659Z,55.65
2018-11-07T22:12:38.635Z,52.50
2018-11-07T22:15:08.557Z,55.17
2018-11-07T22:17:37.698Z,58.95
2018-11-07T22:20:13.265Z,58.65
2018-11-07T22:22:42.446Z,56.02
2018-11-07T22:25:11.541Z,61.83
2018-11-07T22:27:40.542Z,59.10
2018-11-07T22:30:11.236Z,55.55
2018-11-07T22:32:40.475Z,56.48
2018-11-07T22:35:11.410Z,55.25
2018-11-07T22:37:40.620Z,57.67
2018-11-07T22:40:11.636Z,54.42
2018-11-07T22:42:40.640Z,58.68
2018-11-07T22:45:11.170Z,58.38
2018-11-07T22:47:40.320Z,64.03
2018-11-07T22:50:11.210Z,56.08
2018-11-07T22:52:41.346Z,58.05
2018-11-07T22:55:10.278Z,61.48
2018-11-07T22:57:39.827Z,58.35
2018-11-07T23:00:15.027Z,54.90
2018-11-07T23:02:43.953Z,62.05
2018-11-07T23:05:12.898Z,59.63
2018-11-07T23:07:41.835Z,60.10
2018-11-07T23:10:10.982Z,58.23
2018-11-07T23:12:39.938Z,59.53
2018-11-07T23:15:08.951Z,56.63
2018-11-07T23:17:38.020Z,59.95
2018-11-07T23:20:08.693Z,67.75
2018-11-07T23:22:37.624Z,59.03
2018-11-07T23:25:07.791Z,60.20
2018-11-07T23:27:36.733Z,59.33
2018-11-07T23:30:06.507Z,58.75
2018-11-07T23:32:35.449Z,59.35
2018-11-07T23:35:05.941Z,61.20
2018-11-07T23:37:34.972Z,54.80
2018-11-07T23:40:04.003Z,57.48
2018-11-07T23:42:33.164Z,61.90
2018-11-07T23:45:02.293Z,58.45
2018-11-07T23:47:31.270Z,61.53
2018-11-07T23:50:00.879Z,59.80
2018-11-07T23:52:50.789Z,60.28
2018-11-07T23:55:22.128Z,59.15
2018-11-07T23:57:51.814Z,59.05
